sensor_id;sensor_type;location;lat;lon;timestamp;P1;durP1;ratioP1;P2;durP2;ratioP2
25409;SDS011;13339;50.840;4.346;2024-02-28T00:01:47;21.13;;;13.67;;
25409;SDS011;13339;50.840;4.346;2024-02-28T00:04:16;24.83;;;14.27;;
25409;SDS011;13339;50.840;4.346;2024-02-28T00:06:42;22.57;;;13.97;;
25409;SDS011;13339;50.840;4.346;2024-02-28T00:09:07;28.20;;;14.80;;
25409;SDS011;13339;50.840;4.346;2024-02-28T00:11:33;27.87;;;15.20;;
25409;SDS011;13339;50.840;4.346;2024-02-28T00:13:59;25.17;;;15.00;;
25409;SDS011;13339;50.840;4.346;2024-02-28T00:16:27;23.93;;;14.47;;
25409;SDS011;13339;50.840;4.346;2024-02-28T00:18:53;25.97;;;13.80;;
25409;SDS011;13339;50.840;4.346;2024-02-28T00:21:20;25.23;;;15.83;;
25409;SDS011;13339;50.840;4.346;2024-02-28T00:23:45;24.03;;;15.77;;
25409;SDS011;13339;50.840;4.346;2024-02-28T00:26:11;21.67;;;13.77;;
25409;SDS011;13339;50.840;4.346;2024-02-28T00:28:37;23.43;;;15.00;;
25409;SDS011;13339;50.840;4.346;2024-02-28T00:31:03;27.90;;;16.37;;
25409;SDS011;13339;50.840;4.346;2024-02-28T00:33:28;22.70;;;15.00;;
25409;SDS011;13339;50.840;4.346;2024-02-28T00:35:54;24.73;;;14.83;;
25409;SDS011;13339;50.840;4.346;2024-02-28T00:38:20;22.87;;;15.37;;
25409;SDS011;13339;50.840;4.346;2024-02-28T00:40:45;21.57;;;14.27;;
25409;SDS011;13339;50.840;4.346;2024-02-28T00:43:11;23.50;;;14.73;;
25409;SDS011;13339;50.840;4.346;2024-02-28T00:45:37;22.03;;;15.30;;
25409;SDS011;13339;50.840;4.346;2024-02-28T00:48:03;27.70;;;16.47;;
25409;SDS011;13339;50.840;4.346;2024-02-28T00:50:29;27.93;;;15.70;;
25409;SDS011;13339;50.840;4.346;2024-02-28T00:52:54;23.13;;;15.93;;
25409;SDS011;13339;50.840;4.346;2024-02-28T00:55:20;26.40;;;15.43;;
25409;SDS011;13339;50.840;4.346;2024-02-28T00:57:45;24.27;;;17.03;;
25409;SDS011;13339;50.840;4.346;2024-02-28T01:00:11;28.80;;;16.73;;
25409;SDS011;13339;50.840;4.346;2024-02-28T01:02:37;26.50;;;16.90;;
25409;SDS011;13339;50.840;4.346;2024-02-28T01:05:03;25.47;;;16.03;;
25409;SDS011;13339;50.840;4.346;2024-02-28T01:07:28;28.63;;;17.17;;
25409;SDS011;13339;50.840;4.346;2024-02-28T01:09:54;21.50;;;15.57;;
25409;SDS011;13339;50.840;4.346;2024-02-28T01:12:20;22.23;;;15.70;;
25409;SDS011;13339;50.840;4.346;2024-02-28T01:14:45;24.03;;;16.30;;
25409;SDS011;13339;50.840;4.346;2024-02-28T01:17:11;27.57;;;15.57;;
25409;SDS011;13339;50.840;4.346;2024-02-28T01:19:36;22.53;;;15.70;;
25409;SDS011;13339;50.840;4.346;2024-02-28T01:22:02;24.00;;;13.70;;
25409;SDS011;13339;50.840;4.346;2024-02-28T01:24:27;24.70;;;15.07;;
25409;SDS011;13339;50.840;4.346;2024-02-28T01:26:53;22.33;;;13.63;;
25409;SDS011;13339;50.840;4.346;2024-02-28T01:29:19;24.80;;;14.13;;
25409;SDS011;13339;50.840;4.346;2024-02-28T01:31:44;22.53;;;13.97;;
25409;SDS011;13339;50.840;4.346;2024-02-28T01:34:10;23.03;;;13.63;;
25409;SDS011;13339;50.840;4.346;2024-02-28T01:36:35;17.30;;;11.67;;
25409;SDS011;13339;50.840;4.346;2024-02-28T01:39:01;18.37;;;12.80;;
25409;SDS011;13339;50.840;4.346;2024-02-28T01:41:28;24.47;;;12.53;;
25409;SDS011;13339;50.840;4.346;2024-02-28T01:43:53;25.57;;;13.33;;
25409;SDS011;13339;50.840;4.346;2024-02-28T01:46:22;18.67;;;13.47;;
25409;SDS011;13339;50.840;4.346;2024-02-28T01:48:50;28.77;;;14.77;;
25409;SDS011;13339;50.840;4.346;2024-02-28T01:51:16;28.13;;;13.97;;
25409;SDS011;13339;50.840;4.346;2024-02-28T01:53:43;20.33;;;13.03;;
25409;SDS011;13339;50.840;4.346;2024-02-28T01:56:11;21.87;;;13.90;;
25409;SDS011;13339;50.840;4.346;2024-02-28T01:58:39;22.03;;;14.17;;
25409;SDS011;13339;50.840;4.346;2024-02-28T02:01:05;25.20;;;14.63;;
25409;SDS011;13339;50.840;4.346;2024-02-28T02:03:32;25.57;;;14.93;;
25409;SDS011;13339;50.840;4.346;2024-02-28T02:05:59;21.93;;;14.87;;
25409;SDS011;13339;50.840;4.346;2024-02-28T02:08:27;24.13;;;15.53;;
25409;SDS011;13339;50.840;4.346;2024-02-28T02:10:52;24.43;;;15.07;;
25409;SDS011;13339;50.840;4.346;2024-02-28T02:13:18;24.20;;;14.47;;
25409;SDS011;13339;50.840;4.346;2024-02-28T02:15:44;26.73;;;14.83;;
25409;SDS011;13339;50.840;4.346;2024-02-28T02:18:09;22.43;;;15.00;;
25409;SDS011;13339;50.840;4.346;2024-02-28T02:20:35;23.97;;;15.20;;
25409;SDS011;13339;50.840;4.346;2024-02-28T02:23:07;21.63;;;15.17;;
25409;SDS011;13339;50.840;4.346;2024-02-28T02:25:33;26.13;;;14.70;;
25409;SDS011;13339;50.840;4.346;2024-02-28T02:27:59;26.90;;;15.93;;
25409;SDS011;13339;50.840;4.346;2024-02-28T02:30:24;19.93;;;14.00;;
25409;SDS011;13339;50.840;4.346;2024-02-28T02:32:50;26.73;;;16.10;;
25409;SDS011;13339;50.840;4.346;2024-02-28T02:35:15;21.17;;;14.43;;
25409;SDS011;13339;50.840;4.346;2024-02-28T02:37:44;26.53;;;15.40;;
25409;SDS011;13339;50.840;4.346;2024-02-28T02:40:13;22.80;;;14.93;;
25409;SDS011;13339;50.840;4.346;2024-02-28T02:42:40;25.40;;;15.20;;
25409;SDS011;13339;50.840;4.346;2024-02-28T02:45:06;22.00;;;14.80;;
25409;SDS011;13339;50.840;4.346;2024-02-28T02:47:31;24.70;;;14.63;;
25409;SDS011;13339;50.840;4.346;2024-02-28T02:49:57;25.33;;;14.87;;
25409;SDS011;13339;50.840;4.346;2024-02-28T02:52:23;20.00;;;15.00;;
25409;SDS011;13339;50.840;4.346;2024-02-28T02:54:48;22.17;;;14.63;;
25409;SDS011;13339;50.840;4.346;2024-02-28T02:57:14;24.13;;;14.93;;
25409;SDS011;13339;50.840;4.346;2024-02-28T02:59:40;28.23;;;14.27;;
25409;SDS011;13339;50.840;4.346;2024-02-28T03:02:05;28.33;;;15.27;;
25409;SDS011;13339;50.840;4.346;2024-02-28T03:04:31;32.30;;;15.27;;
25409;SDS011;13339;50.840;4.346;2024-02-28T03:06:56;25.53;;;15.73;;
25409;SDS011;13339;50.840;4.346;2024-02-28T03:09:22;26.70;;;14.83;;
25409;SDS011;13339;50.840;4.346;2024-02-28T03:11:48;26.87;;;15.97;;
25409;SDS011;13339;50.840;4.346;2024-02-28T03:14:13;22.30;;;13.73;;
25409;SDS011;13339;50.840;4.346;2024-02-28T03:16:42;28.47;;;14.77;;
25409;SDS011;13339;50.840;4.346;2024-02-28T03:19:09;26.33;;;14.27;;
25409;SDS011;13339;50.840;4.346;2024-02-28T03:21:35;25.60;;;15.50;;
25409;SDS011;13339;50.840;4.346;2024-02-28T03:24:01;24.63;;;14.90;;
25409;SDS011;13339;50.840;4.346;2024-02-28T03:26:27;22.27;;;14.83;;
25409;SDS011;13339;50.840;4.346;2024-02-28T03:28:52;28.00;;;15.20;;
25409;SDS011;13339;50.840;4.346;2024-02-28T03:31:18;26.87;;;14.80;;
25409;SDS011;13339;50.840;4.346;2024-02-28T03:33:43;25.37;;;15.03;;
25409;SDS011;13339;50.840;4.346;2024-02-28T03:36:11;22.60;;;14.03;;
25409;SDS011;13339;50.840;4.346;2024-02-28T03:38:37;20.53;;;14.67;;
25409;SDS011;13339;50.840;4.346;2024-02-28T03:41:03;23.47;;;14.63;;
25409;SDS011;13339;50.840;4.346;2024-02-28T03:43:30;23.63;;;15.67;;
25409;SDS011;13339;50.840;4.346;2024-02-28T03:45:56;21.57;;;15.13;;
25409;SDS011;13339;50.840;4.346;2024-02-28T03:48:21;26.23;;;14.87;;
25409;SDS011;13339;50.840;4.346;2024-02-28T03:50:47;21.77;;;14.60;;
25409;SDS011;13339;50.840;4.346;2024-02-28T03:53:13;29.77;;;15.13;;
25409;SDS011;13339;50.840;4.346;2024-02-28T03:55:38;24.90;;;14.87;;
25409;SDS011;13339;50.840;4.346;2024-02-28T03:58:04;24.60;;;15.47;;
25409;SDS011;13339;50.840;4.346;2024-02-28T04:00:33;25.20;;;15.50;;
25409;SDS011;13339;50.840;4.346;2024-02-28T04:02:59;35.17;;;15.30;;
25409;SDS011;13339;50.840;4.346;2024-02-28T04:05:25;29.17;;;15.17;;
25409;SDS011;13339;50.840;4.346;2024-02-28T04:07:51;30.43;;;16.50;;
25409;SDS011;13339;50.840;4.346;2024-02-28T04:10:16;29.00;;;15.13;;
25409;SDS011;13339;50.840;4.346;2024-02-28T04:12:42;24.97;;;14.83;;
25409;SDS011;13339;50.840;4.346;2024-02-28T04:15:10;27.47;;;14.77;;
25409;SDS011;13339;50.840;4.346;2024-02-28T04:17:39;24.97;;;14.60;;
25409;SDS011;13339;50.840;4.346;2024-02-28T04:20:11;24.37;;;15.13;;
25409;SDS011;13339;50.840;4.346;2024-02-28T04:22:37;27.23;;;14.27;;
25409;SDS011;13339;50.840;4.346;2024-02-28T04:25:07;23.53;;;14.90;;
25409;SDS011;13339;50.840;4.346;2024-02-28T04:27:34;31.30;;;15.77;;
25409;SDS011;13339;50.840;4.346;2024-02-28T04:30:00;28.47;;;15.53;;
25409;SDS011;13339;50.840;4.346;2024-02-28T04:32:25;23.27;;;14.30;;
25409;SDS011;13339;50.840;4.346;2024-02-28T04:34:51;21.60;;;14.97;;
25409;SDS011;13339;50.840;4.346;2024-02-28T04:37:16;24.97;;;14.47;;
25409;SDS011;13339;50.840;4.346;2024-02-28T04:39:42;28.90;;;15.27;;
25409;SDS011;13339;50.840;4.346;2024-02-28T04:42:08;28.37;;;14.30;;
25409;SDS011;13339;50.840;4.346;2024-02-28T04:44:33;35.60;;;15.03;;
25409;SDS011;13339;50.840;4.346;2024-02-28T04:46:59;24.57;;;15.40;;
25409;SDS011;13339;50.840;4.346;2024-02-28T04:49:25;29.50;;;15.30;;
25409;SDS011;13339;50.840;4.346;2024-02-28T04:51:51;25.97;;;13.63;;
25409;SDS011;13339;50.840;4.346;2024-02-28T04:54:16;25.40;;;13.80;;
25409;SDS011;13339;50.840;4.346;2024-02-28T04:56:42;24.70;;;14.40;;
25409;SDS011;13339;50.840;4.346;2024-02-28T04:59:08;22.03;;;13.57;;
25409;SDS011;13339;50.840;4.346;2024-02-28T05:01:35;29.87;;;14.77;;
25409;SDS011;13339;50.840;4.346;2024-02-28T05:04:04;22.93;;;14.30;;
25409;SDS011;13339;50.840;4.346;2024-02-28T05:06:31;28.10;;;14.27;;
25409;SDS011;13339;50.840;4.346;2024-02-28T05:08:56;26.20;;;14.13;;
25409;SDS011;13339;50.840;4.346;2024-02-28T05:11:22;28.77;;;14.50;;
25409;SDS011;13339;50.840;4.346;2024-02-28T05:13:48;23.80;;;14.13;;
25409;SDS011;13339;50.840;4.346;2024-02-28T05:16:14;29.03;;;13.90;;
25409;SDS011;13339;50.840;4.346;2024-02-28T05:18:40;24.40;;;14.60;;
25409;SDS011;13339;50.840;4.346;2024-02-28T05:21:06;25.33;;;14.83;;
25409;SDS011;13339;50.840;4.346;2024-02-28T05:23:32;26.97;;;14.97;;
25409;SDS011;13339;50.840;4.346;2024-02-28T05:25:57;24.87;;;14.10;;
25409;SDS011;13339;50.840;4.346;2024-02-28T05:28:28;20.30;;;13.00;;
25409;SDS011;13339;50.840;4.346;2024-02-28T05:30:58;31.90;;;14.37;;
25409;SDS011;13339;50.840;4.346;2024-02-28T05:33:24;26.23;;;14.33;;
25409;SDS011;13339;50.840;4.346;2024-02-28T05:35:49;29.77;;;14.53;;
25409;SDS011;13339;50.840;4.346;2024-02-28T05:38:15;25.77;;;13.47;;
25409;SDS011;13339;50.840;4.346;2024-02-28T05:40:41;22.27;;;13.80;;
25409;SDS011;13339;50.840;4.346;2024-02-28T05:43:07;23.83;;;14.87;;
25409;SDS011;13339;50.840;4.346;2024-02-28T05:45:33;25.27;;;13.30;;
25409;SDS011;13339;50.840;4.346;2024-02-28T05:47:58;30.67;;;14.50;;
25409;SDS011;13339;50.840;4.346;2024-02-28T05:50:24;25.67;;;14.80;;
25409;SDS011;13339;50.840;4.346;2024-02-28T05:52:50;25.80;;;14.63;;
25409;SDS011;13339;50.840;4.346;2024-02-28T05:55:15;24.73;;;15.30;;
25409;SDS011;13339;50.840;4.346;2024-02-28T05:57:42;23.80;;;14.57;;
25409;SDS011;13339;50.840;4.346;2024-02-28T06:00:08;25.43;;;14.10;;
25409;SDS011;13339;50.840;4.346;2024-02-28T06:02:37;26.33;;;14.57;;
25409;SDS011;13339;50.840;4.346;2024-02-28T06:05:03;22.13;;;14.07;;
25409;SDS011;13339;50.840;4.346;2024-02-28T06:07:29;23.83;;;14.93;;
25409;SDS011;13339;50.840;4.346;2024-02-28T06:09:55;27.80;;;15.07;;
25409;SDS011;13339;50.840;4.346;2024-02-28T06:12:21;26.17;;;14.57;;
25409;SDS011;13339;50.840;4.346;2024-02-28T06:14:46;29.20;;;14.57;;
25409;SDS011;13339;50.840;4.346;2024-02-28T06:17:13;28.27;;;15.30;;
25409;SDS011;13339;50.840;4.346;2024-02-28T06:19:38;27.10;;;14.10;;
25409;SDS011;13339;50.840;4.346;2024-02-28T06:22:04;23.13;;;14.00;;
25409;SDS011;13339;50.840;4.346;2024-02-28T06:24:30;28.23;;;14.57;;
25409;SDS011;13339;50.840;4.346;2024-02-28T06:26:58;23.60;;;13.73;;
25409;SDS011;13339;50.840;4.346;2024-02-28T06:29:24;23.53;;;14.70;;
25409;SDS011;13339;50.840;4.346;2024-02-28T06:31:50;29.93;;;15.80;;
25409;SDS011;13339;50.840;4.346;2024-02-28T06:34:16;28.93;;;15.13;;
25409;SDS011;13339;50.840;4.346;2024-02-28T06:36:43;29.37;;;15.80;;
25409;SDS011;13339;50.840;4.346;2024-02-28T06:39:09;33.67;;;15.43;;
25409;SDS011;13339;50.840;4.346;2024-02-28T06:41:34;28.17;;;14.90;;
25409;SDS011;13339;50.840;4.346;2024-02-28T06:44:00;30.50;;;14.97;;
25409;SDS011;13339;50.840;4.346;2024-02-28T06:46:26;27.30;;;14.47;;
25409;SDS011;13339;50.840;4.346;2024-02-28T06:48:51;30.07;;;14.80;;
25409;SDS011;13339;50.840;4.346;2024-02-28T06:51:17;34.83;;;14.90;;
25409;SDS011;13339;50.840;4.346;2024-02-28T06:53:43;27.03;;;13.83;;
25409;SDS011;13339;50.840;4.346;2024-02-28T06:56:08;25.20;;;14.03;;
25409;SDS011;13339;50.840;4.346;2024-02-28T06:58:34;31.63;;;14.57;;
25409;SDS011;13339;50.840;4.346;2024-02-28T07:00:59;26.07;;;14.07;;
25409;SDS011;13339;50.840;4.346;2024-02-28T07:03:25;31.67;;;13.73;;
25409;SDS011;13339;50.840;4.346;2024-02-28T07:05:51;26.77;;;14.30;;
25409;SDS011;13339;50.840;4.346;2024-02-28T07:08:18;24.17;;;13.50;;
25409;SDS011;13339;50.840;4.346;2024-02-28T07:10:45;24.20;;;13.47;;
25409;SDS011;13339;50.840;4.346;2024-02-28T07:13:14;30.50;;;14.37;;
25409;SDS011;13339;50.840;4.346;2024-02-28T07:15:40;26.00;;;13.73;;
25409;SDS011;13339;50.840;4.346;2024-02-28T07:18:06;28.53;;;14.27;;
25409;SDS011;13339;50.840;4.346;2024-02-28T07:20:32;28.83;;;14.87;;
25409;SDS011;13339;50.840;4.346;2024-02-28T07:22:58;26.17;;;13.77;;
25409;SDS011;13339;50.840;4.346;2024-02-28T07:25:24;29.77;;;13.53;;
25409;SDS011;13339;50.840;4.346;2024-02-28T07:27:49;23.57;;;13.43;;
25409;SDS011;13339;50.840;4.346;2024-02-28T07:30:15;28.40;;;14.00;;
25409;SDS011;13339;50.840;4.346;2024-02-28T07:32:40;29.67;;;13.43;;
25409;SDS011;13339;50.840;4.346;2024-02-28T07:35:06;25.73;;;13.60;;
25409;SDS011;13339;50.840;4.346;2024-02-28T07:37:32;24.13;;;12.77;;
25409;SDS011;13339;50.840;4.346;2024-02-28T07:39:58;23.70;;;13.20;;
25409;SDS011;13339;50.840;4.346;2024-02-28T07:42:24;27.83;;;13.83;;
25409;SDS011;13339;50.840;4.346;2024-02-28T07:44:50;21.70;;;13.47;;
25409;SDS011;13339;50.840;4.346;2024-02-28T07:47:19;34.00;;;14.00;;
25409;SDS011;13339;50.840;4.346;2024-02-28T07:49:44;29.67;;;12.90;;
25409;SDS011;13339;50.840;4.346;2024-02-28T07:52:10;25.00;;;13.90;;
25409;SDS011;13339;50.840;4.346;2024-02-28T07:54:35;26.03;;;13.53;;
25409;SDS011;13339;50.840;4.346;2024-02-28T07:57:02;32.93;;;13.43;;
25409;SDS011;13339;50.840;4.346;2024-02-28T07:59:28;28.47;;;13.97;;
25409;SDS011;13339;50.840;4.346;2024-02-28T08:01:54;27.47;;;13.30;;
25409;SDS011;13339;50.840;4.346;2024-02-28T08:04:20;29.97;;;13.57;;
25409;SDS011;13339;50.840;4.346;2024-02-28T08:06:46;27.73;;;13.63;;
25409;SDS011;13339;50.840;4.346;2024-02-28T08:09:11;29.83;;;14.00;;
25409;SDS011;13339;50.840;4.346;2024-02-28T08:11:37;25.33;;;13.30;;
25409;SDS011;13339;50.840;4.346;2024-02-28T08:14:03;29.90;;;14.07;;
25409;SDS011;13339;50.840;4.346;2024-02-28T08:16:28;29.13;;;14.93;;
25409;SDS011;13339;50.840;4.346;2024-02-28T08:18:54;25.20;;;14.20;;
25409;SDS011;13339;50.840;4.346;2024-02-28T08:21:21;33.10;;;15.00;;
25409;SDS011;13339;50.840;4.346;2024-02-28T08:23:46;33.90;;;14.50;;
25409;SDS011;13339;50.840;4.346;2024-02-28T08:26:12;35.17;;;14.30;;
25409;SDS011;13339;50.840;4.346;2024-02-28T08:28:38;28.13;;;13.80;;
25409;SDS011;13339;50.840;4.346;2024-02-28T08:31:04;29.60;;;13.87;;
25409;SDS011;13339;50.840;4.346;2024-02-28T08:33:29;30.70;;;14.87;;
25409;SDS011;13339;50.840;4.346;2024-02-28T08:35:55;32.03;;;15.43;;
25409;SDS011;13339;50.840;4.346;2024-02-28T08:38:20;37.63;;;15.57;;
25409;SDS011;13339;50.840;4.346;2024-02-28T08:40:46;41.60;;;16.17;;
25409;SDS011;13339;50.840;4.346;2024-02-28T08:43:12;29.70;;;15.83;;
25409;SDS011;13339;50.840;4.346;2024-02-28T08:45:37;29.27;;;13.87;;
25409;SDS011;13339;50.840;4.346;2024-02-28T08:48:03;33.17;;;15.27;;
25409;SDS011;13339;50.840;4.346;2024-02-28T08:50:29;28.00;;;14.27;;
25409;SDS011;13339;50.840;4.346;2024-02-28T08:52:54;29.73;;;14.93;;
25409;SDS011;13339;50.840;4.346;2024-02-28T08:55:20;25.33;;;13.50;;
25409;SDS011;13339;50.840;4.346;2024-02-28T08:57:46;29.03;;;14.30;;
25409;SDS011;13339;50.840;4.346;2024-02-28T09:00:13;30.87;;;14.37;;
25409;SDS011;13339;50.840;4.346;2024-02-28T09:02:40;29.50;;;15.37;;
25409;SDS011;13339;50.840;4.346;2024-02-28T09:05:06;27.13;;;14.57;;
25409;SDS011;13339;50.840;4.346;2024-02-28T09:07:32;30.20;;;15.00;;
25409;SDS011;13339;50.840;4.346;2024-02-28T09:10:00;32.87;;;14.70;;
25409;SDS011;13339;50.840;4.346;2024-02-28T09:12:30;38.57;;;16.00;;
25409;SDS011;13339;50.840;4.346;2024-02-28T09:14:56;32.90;;;16.10;;
25409;SDS011;13339;50.840;4.346;2024-02-28T09:17:23;32.03;;;15.53;;
25409;SDS011;13339;50.840;4.346;2024-02-28T09:19:49;33.43;;;15.20;;
25409;SDS011;13339;50.840;4.346;2024-02-28T09:22:15;33.47;;;15.23;;
25409;SDS011;13339;50.840;4.346;2024-02-28T09:24:42;29.47;;;13.80;;
25409;SDS011;13339;50.840;4.346;2024-02-28T09:27:08;30.43;;;13.73;;
25409;SDS011;13339;50.840;4.346;2024-02-28T09:29:33;27.90;;;12.90;;
25409;SDS011;13339;50.840;4.346;2024-02-28T09:31:59;25.67;;;13.00;;
25409;SDS011;13339;50.840;4.346;2024-02-28T09:34:24;25.73;;;13.47;;
25409;SDS011;13339;50.840;4.346;2024-02-28T09:36:50;30.93;;;12.67;;
25409;SDS011;13339;50.840;4.346;2024-02-28T09:39:16;33.50;;;13.37;;
25409;SDS011;13339;50.840;4.346;2024-02-28T09:41:42;24.33;;;12.67;;
25409;SDS011;13339;50.840;4.346;2024-02-28T09:44:07;32.37;;;14.03;;
25409;SDS011;13339;50.840;4.346;2024-02-28T09:46:33;28.27;;;13.20;;
25409;SDS011;13339;50.840;4.346;2024-02-28T09:49:06;35.53;;;13.77;;
25409;SDS011;13339;50.840;4.346;2024-02-28T09:51:35;26.40;;;12.17;;
25409;SDS011;13339;50.840;4.346;2024-02-28T09:54:02;30.83;;;12.83;;
25409;SDS011;13339;50.840;4.346;2024-02-28T09:56:31;26.80;;;12.30;;
25409;SDS011;13339;50.840;4.346;2024-02-28T09:58:57;31.20;;;12.80;;
25409;SDS011;13339;50.840;4.346;2024-02-28T10:01:24;30.43;;;12.97;;
25409;SDS011;13339;50.840;4.346;2024-02-28T10:03:51;28.57;;;13.67;;
25409;SDS011;13339;50.840;4.346;2024-02-28T10:06:23;30.30;;;14.40;;
25409;SDS011;13339;50.840;4.346;2024-02-28T10:08:49;33.83;;;13.20;;
25409;SDS011;13339;50.840;4.346;2024-02-28T10:11:21;34.47;;;14.23;;
25409;SDS011;13339;50.840;4.346;2024-02-28T10:13:48;35.73;;;15.50;;
25409;SDS011;13339;50.840;4.346;2024-02-28T10:16:14;29.57;;;14.87;;
25409;SDS011;13339;50.840;4.346;2024-02-28T10:18:42;29.90;;;13.97;;
25409;SDS011;13339;50.840;4.346;2024-02-28T10:21:09;37.10;;;14.47;;
25409;SDS011;13339;50.840;4.346;2024-02-28T10:23:36;30.53;;;13.23;;
25409;SDS011;13339;50.840;4.346;2024-02-28T10:26:02;23.77;;;13.70;;
25409;SDS011;13339;50.840;4.346;2024-02-28T10:28:28;30.17;;;13.63;;
25409;SDS011;13339;50.840;4.346;2024-02-28T10:30:54;23.37;;;12.93;;
25409;SDS011;13339;50.840;4.346;2024-02-28T10:33:20;26.37;;;13.67;;
25409;SDS011;13339;50.840;4.346;2024-02-28T10:35:45;21.07;;;12.90;;
25409;SDS011;13339;50.840;4.346;2024-02-28T10:38:17;22.10;;;12.53;;
25409;SDS011;13339;50.840;4.346;2024-02-28T10:40:43;18.30;;;10.83;;
25409;SDS011;13339;50.840;4.346;2024-02-28T10:43:08;26.93;;;11.27;;
25409;SDS011;13339;50.840;4.346;2024-02-28T10:45:38;17.23;;;11.30;;
25409;SDS011;13339;50.840;4.346;2024-02-28T10:48:04;16.07;;;10.53;;
25409;SDS011;13339;50.840;4.346;2024-02-28T10:50:30;19.77;;;10.83;;
25409;SDS011;13339;50.840;4.346;2024-02-28T10:53:01;19.33;;;11.53;;
25409;SDS011;13339;50.840;4.346;2024-02-28T10:55:32;22.73;;;11.50;;
25409;SDS011;13339;50.840;4.346;2024-02-28T10:58:01;20.43;;;10.93;;
25409;SDS011;13339;50.840;4.346;2024-02-28T11:00:29;23.20;;;11.67;;
25409;SDS011;13339;50.840;4.346;2024-02-28T11:02:56;18.10;;;11.30;;
25409;SDS011;13339;50.840;4.346;2024-02-28T11:05:23;25.13;;;11.70;;
25409;SDS011;13339;50.840;4.346;2024-02-28T11:07:51;23.97;;;11.37;;
25409;SDS011;13339;50.840;4.346;2024-02-28T11:10:17;20.40;;;11.30;;
25409;SDS011;13339;50.840;4.346;2024-02-28T11:12:43;18.07;;;10.00;;
25409;SDS011;13339;50.840;4.346;2024-02-28T11:15:19;14.27;;;9.63;;
25409;SDS011;13339;50.840;4.346;2024-02-28T11:17:45;15.43;;;9.57;;
25409;SDS011;13339;50.840;4.346;2024-02-28T11:20:11;15.30;;;8.83;;
25409;SDS011;13339;50.840;4.346;2024-02-28T11:22:38;10.07;;;8.30;;
25409;SDS011;13339;50.840;4.346;2024-02-28T11:25:05;13.57;;;7.20;;
25409;SDS011;13339;50.840;4.346;2024-02-28T11:27:31;13.50;;;7.40;;
25409;SDS011;13339;50.840;4.346;2024-02-28T11:29:56;19.53;;;7.97;;
25409;SDS011;13339;50.840;4.346;2024-02-28T11:32:24;13.73;;;7.50;;
25409;SDS011;13339;50.840;4.346;2024-02-28T11:34:50;8.63;;;6.77;;
25409;SDS011;13339;50.840;4.346;2024-02-28T11:37:16;13.10;;;7.67;;
25409;SDS011;13339;50.840;4.346;2024-02-28T11:39:49;10.60;;;6.90;;
25409;SDS011;13339;50.840;4.346;2024-02-28T11:42:16;15.53;;;7.97;;
25409;SDS011;13339;50.840;4.346;2024-02-28T11:44:42;13.47;;;7.60;;
25409;SDS011;13339;50.840;4.346;2024-02-28T11:47:10;18.20;;;7.23;;
25409;SDS011;13339;50.840;4.346;2024-02-28T11:49:37;10.07;;;6.20;;
25409;SDS011;13339;50.840;4.346;2024-02-28T11:52:04;11.30;;;6.60;;
25409;SDS011;13339;50.840;4.346;2024-02-28T11:54:29;9.13;;;6.07;;
25409;SDS011;13339;50.840;4.346;2024-02-28T11:56:55;15.80;;;6.20;;
25409;SDS011;13339;50.840;4.346;2024-02-28T11:59:20;15.63;;;7.00;;
25409;SDS011;13339;50.840;4.346;2024-02-28T12:01:46;15.07;;;6.87;;
25409;SDS011;13339;50.840;4.346;2024-02-28T12:04:12;10.50;;;7.40;;
25409;SDS011;13339;50.840;4.346;2024-02-28T12:06:38;10.03;;;6.83;;
25409;SDS011;13339;50.840;4.346;2024-02-28T12:09:08;13.33;;;6.90;;
25409;SDS011;13339;50.840;4.346;2024-02-28T12:11:43;14.57;;;7.13;;
25409;SDS011;13339;50.840;4.346;2024-02-28T12:14:09;13.80;;;6.80;;
25409;SDS011;13339;50.840;4.346;2024-02-28T12:16:38;14.10;;;6.80;;
25409;SDS011;13339;50.840;4.346;2024-02-28T12:19:08;9.13;;;6.60;;
25409;SDS011;13339;50.840;4.346;2024-02-28T12:21:38;11.53;;;6.70;;
25409;SDS011;13339;50.840;4.346;2024-02-28T12:24:05;12.83;;;6.33;;
25409;SDS011;13339;50.840;4.346;2024-02-28T12:26:34;13.07;;;6.53;;
25409;SDS011;13339;50.840;4.346;2024-02-28T12:28:59;13.33;;;7.03;;
25409;SDS011;13339;50.840;4.346;2024-02-28T12:31:26;15.70;;;6.87;;
25409;SDS011;13339;50.840;4.346;2024-02-28T12:33:52;14.87;;;6.97;;
25409;SDS011;13339;50.840;4.346;2024-02-28T12:36:17;13.87;;;6.77;;
25409;SDS011;13339;50.840;4.346;2024-02-28T12:38:44;17.77;;;8.07;;
25409;SDS011;13339;50.840;4.346;2024-02-28T12:41:10;12.17;;;6.97;;
25409;SDS011;13339;50.840;4.346;2024-02-28T12:43:36;14.67;;;7.53;;
25409;SDS011;13339;50.840;4.346;2024-02-28T12:46:02;11.47;;;7.40;;
25409;SDS011;13339;50.840;4.346;2024-02-28T12:48:27;19.93;;;7.70;;
25409;SDS011;13339;50.840;4.346;2024-02-28T12:50:54;9.40;;;6.27;;
25409;SDS011;13339;50.840;4.346;2024-02-28T12:53:20;10.70;;;6.17;;
25409;SDS011;13339;50.840;4.346;2024-02-28T12:55:45;10.00;;;6.00;;
25409;SDS011;13339;50.840;4.346;2024-02-28T12:58:11;11.77;;;6.13;;
25409;SDS011;13339;50.840;4.346;2024-02-28T13:00:37;9.50;;;6.00;;
25409;SDS011;13339;50.840;4.346;2024-02-28T13:03:02;9.20;;;5.43;;
25409;SDS011;13339;50.840;4.346;2024-02-28T13:05:29;8.10;;;5.63;;
25409;SDS011;13339;50.840;4.346;2024-02-28T13:07:55;11.90;;;7.07;;
25409;SDS011;13339;50.840;4.346;2024-02-28T13:10:20;9.83;;;6.57;;
25409;SDS011;13339;50.840;4.346;2024-02-28T13:12:47;11.93;;;7.23;;
25409;SDS011;13339;50.840;4.346;2024-02-28T13:15:12;13.33;;;6.83;;
25409;SDS011;13339;50.840;4.346;2024-02-28T13:17:38;13.37;;;7.03;;
25409;SDS011;13339;50.840;4.346;2024-02-28T13:20:06;10.60;;;7.20;;
25409;SDS011;13339;50.840;4.346;2024-02-28T13:22:32;9.70;;;6.60;;
25409;SDS011;13339;50.840;4.346;2024-02-28T13:24:58;11.93;;;6.53;;
25409;SDS011;13339;50.840;4.346;2024-02-28T13:27:25;11.53;;;7.27;;
25409;SDS011;13339;50.840;4.346;2024-02-28T13:29:51;9.73;;;6.87;;
25409;SDS011;13339;50.840;4.346;2024-02-28T13:32:16;10.40;;;6.70;;
25409;SDS011;13339;50.840;4.346;2024-02-28T13:34:42;9.37;;;6.37;;
25409;SDS011;13339;50.840;4.346;2024-02-28T13:37:08;12.57;;;6.47;;
25409;SDS011;13339;50.840;4.346;2024-02-28T13:39:33;9.20;;;6.23;;
25409;SDS011;13339;50.840;4.346;2024-02-28T13:42:00;10.60;;;6.77;;
25409;SDS011;13339;50.840;4.346;2024-02-28T13:44:25;12.43;;;5.90;;
25409;SDS011;13339;50.840;4.346;2024-02-28T13:46:52;11.67;;;6.67;;
25409;SDS011;13339;50.840;4.346;2024-02-28T13:49:18;7.93;;;5.50;;
25409;SDS011;13339;50.840;4.346;2024-02-28T13:51:45;12.87;;;7.80;;
25409;SDS011;13339;50.840;4.346;2024-02-28T13:54:11;9.57;;;7.40;;
25409;SDS011;13339;50.840;4.346;2024-02-28T13:56:36;9.40;;;7.10;;
25409;SDS011;13339;50.840;4.346;2024-02-28T13:59:02;11.30;;;7.00;;
25409;SDS011;13339;50.840;4.346;2024-02-28T14:01:28;12.43;;;7.03;;
25409;SDS011;13339;50.840;4.346;2024-02-28T14:03:54;8.47;;;6.23;;
25409;SDS011;13339;50.840;4.346;2024-02-28T14:06:19;14.03;;;6.93;;
25409;SDS011;13339;50.840;4.346;2024-02-28T14:08:45;10.80;;;6.70;;
25409;SDS011;13339;50.840;4.346;2024-02-28T14:11:11;13.23;;;6.87;;
25409;SDS011;13339;50.840;4.346;2024-02-28T14:13:37;12.37;;;6.00;;
25409;SDS011;13339;50.840;4.346;2024-02-28T14:16:06;9.37;;;6.20;;
25409;SDS011;13339;50.840;4.346;2024-02-28T14:18:32;10.30;;;6.63;;
25409;SDS011;13339;50.840;4.346;2024-02-28T14:20:58;9.37;;;6.00;;